Terminal Aerodrome Forecast
Issued by NWS Sterling, VA

Current Version | Previous Version | Text Only | Print | Product List | Glossary Off
Versions: 1 2 3 4 5 6 7 8 9 10 11 12 13 14 15 16 17 18 19 20 21 22 23 24 25 26 27 28 29 30

000
FTUS41 KLWX 010802 AAB
TAFIAD
TAF AMD
KIAD 010802Z 0108/0212 VRB03KT P6SM BKN100
      TEMPO 0108/0110 BKN005
     FM011100 26004KT P6SM SCT110
     FM011600 26007KT P6SM SCT050
     FM012300 26005KT P6SM SCT250
     FM020200 00000KT P6SM SCT200=

USA.gov is the U.S. government's official web portal to all federal, state and local government web resources and services.